ePrivacy and GPDR Cookie Consent by Cookie Consent
EmailTwitter


Observations de surface / France / LFMK (07635)

Régions: Québec | Canada | États-Unis | Europe | France | UK | Ailleurs
Station
Affichage
Infos & localisation pour LFMK (07635) | Aide pour décoder les METARs

Observations prises le 2021-06-21 à 23H00 UTC à CARCASSONNE/SALV, FR (LFMK)

Etat du ciel: partiellement nuageux.

Température: 16.0 Celsius

Point de rosée: 14.0 Celsius

Humidité relative: 88%

Vents: Ouest à 19 km/h ou 10 noeuds.

Pression au niveau moyen de la mer: 101.20 kilopascals.

Visibilité horizontale: 6.21 milles terrestres ou 9.94 kilomètres.

Hauteur du plafond: 3658 mètres ( 12000 pieds ).

Observation METAR:

LFMK 212300Z AUTO 26010KT 230V290 9999 SCT062 BKN120 16/14 Q1012=